Time;durP1;ratioP1;P1;durP2;ratioP2;P2;SDS_P1;SDS_P2;PMS_P1;PMS_P2;Temp;Humidity;BMP_temperature;BMP_pressure;BME280_temperature;BME280_humidity;BME280_pressure;Samples;Min_cycle;Max_cycle;Signal;HPM_P1;HPM_P2
2023/04/09 00:01:46;;;;;;;25.37;15.20;;;5.60;99.90;;;;;;5048086;28;20214;-58
2023/04/09 00:04:11;;;;;;;25.93;15.77;;;5.60;99.90;;;;;;5043047;28;20180;-58
2023/04/09 00:06:37;;;;;;;25.67;15.40;;;5.50;99.90;;;;;;5040622;28;20199;-59
2023/04/09 00:09:03;;;;;;;24.47;15.83;;;5.50;99.90;;;;;;5048697;28;20655;-58
2023/04/09 00:11:28;;;;;;;24.40;15.33;;;5.40;99.90;;;;;;5042277;28;20793;-59
2023/04/09 00:13:54;;;;;;;22.43;13.87;;;5.40;99.90;;;;;;5042947;28;20209;-58
2023/04/09 00:16:19;;;;;;;22.30;14.57;;;5.40;99.90;;;;;;5040815;28;20407;-58
2023/04/09 00:18:45;;;;;;;25.00;15.00;;;5.40;99.90;;;;;;5044930;28;20222;-59
2023/04/09 00:21:10;;;;;;;25.87;15.87;;;5.40;99.90;;;;;;5049583;28;20191;-58
2023/04/09 00:23:36;;;;;;;24.43;14.93;;;5.30;99.90;;;;;;5040291;28;20257;-58
2023/04/09 00:26:02;;;;;;;26.10;15.13;;;5.30;99.90;;;;;;5043539;28;20222;-58
2023/04/09 00:28:27;;;;;;;27.10;15.30;;;5.20;99.90;;;;;;5049443;28;20226;-58
2023/04/09 00:30:53;;;;;;;24.23;15.00;;;5.20;99.90;;;;;;5047804;28;20175;-58
2023/04/09 00:33:18;;;;;;;23.40;14.23;;;5.10;99.90;;;;;;5046203;28;20716;-58
2023/04/09 00:35:44;;;;;;;25.17;15.50;;;5.10;99.90;;;;;;5046795;28;20229;-58
2023/04/09 00:38:09;;;;;;;24.23;15.40;;;5.10;99.90;;;;;;5049262;28;20582;-58
2023/04/09 00:40:35;;;;;;;24.70;14.50;;;5.00;99.90;;;;;;5042938;28;20664;-58
2023/04/09 00:43:01;;;;;;;24.60;15.20;;;5.00;99.90;;;;;;5046691;28;20254;-58
2023/04/09 00:45:27;;;;;;;26.90;14.70;;;4.90;99.90;;;;;;5044377;28;20184;-59
2023/04/09 00:47:52;;;;;;;25.97;16.20;;;4.90;99.90;;;;;;5055230;28;20230;-58
2023/04/09 00:50:18;;;;;;;25.23;14.47;;;4.90;99.90;;;;;;5043632;28;20468;-59
2023/04/09 00:52:44;;;;;;;23.73;15.17;;;4.90;99.90;;;;;;5045377;28;20173;-58
2023/04/09 00:55:12;;;;;;;26.03;14.90;;;4.80;99.90;;;;;;5046784;28;20711;-58
2023/04/09 00:57:37;;;;;;;26.80;15.83;;;4.80;99.90;;;;;;5042906;28;20474;-58
2023/04/09 01:00:06;;;;;;;24.07;14.77;;;4.70;99.90;;;;;;5047702;28;20457;-58
2023/04/09 01:02:31;;;;;;;26.50;16.17;;;4.70;99.90;;;;;;5045228;28;20229;-58
2023/04/09 01:04:58;;;;;;;25.20;14.07;;;4.60;99.90;;;;;;5045603;28;20446;-59
2023/04/09 01:07:59;;;;;;;23.50;13.93;;;4.60;99.90;;;;;;5045203;28;20253;-59
2023/04/09 01:10:40;;;;;;;26.33;15.10;;;4.50;99.90;;;;;;5037736;28;20448;-58
2023/04/09 01:13:15;;;;;;;25.77;15.03;;;4.50;99.90;;;;;;5048111;28;20434;-59
2023/04/09 01:15:54;;;;;;;24.70;14.40;;;4.40;99.90;;;;;;5047798;28;20464;-59
2023/04/09 01:18:43;;;;;;;25.10;14.63;;;4.40;99.90;;;;;;5045104;28;20467;-60
2023/04/09 01:21:11;;;;;;;24.47;14.30;;;4.40;99.90;;;;;;5041372;28;20425;-58
2023/04/09 01:24:12;;;;;;;28.30;14.50;;;4.40;99.90;;;;;;5042844;28;21546;-59
2023/04/09 01:26:43;;;;;;;23.47;13.03;;;4.40;99.90;;;;;;5046597;28;20536;-59
2023/04/09 01:29:10;;;;;;;21.90;13.27;;;4.40;99.90;;;;;;5049396;28;20429;-59
2023/04/09 01:31:37;;;;;;;30.30;15.57;;;4.30;99.90;;;;;;5039884;28;20576;-58
2023/04/09 01:34:05;;;;;;;25.60;14.90;;;4.30;99.90;;;;;;5040824;28;20460;-61
2023/04/09 01:36:32;;;;;;;22.57;14.30;;;4.20;99.90;;;;;;5037893;28;20511;-58
2023/04/09 01:39:00;;;;;;;22.90;12.93;;;4.20;99.90;;;;;;5048413;28;20429;-58
2023/04/09 01:41:26;;;;;;;29.30;15.97;;;4.20;99.90;;;;;;5045552;28;20619;-58
2023/04/09 01:43:52;;;;;;;21.13;13.27;;;4.20;99.90;;;;;;5046395;28;20453;-58
2023/04/09 01:46:19;;;;;;;22.43;13.30;;;4.20;99.90;;;;;;5043698;28;20450;-58
2023/04/09 01:48:45;;;;;;;30.30;15.90;;;4.20;99.90;;;;;;5041034;28;20512;-59
2023/04/09 01:51:16;;;;;;;22.57;14.30;;;4.20;99.90;;;;;;5046798;28;20521;-59
2023/04/09 01:53:42;;;;;;;23.67;14.13;;;4.20;99.90;;;;;;5048273;28;20510;-58
2023/04/09 01:56:08;;;;;;;23.13;14.20;;;4.20;99.90;;;;;;5047747;28;20449;-58
2023/04/09 01:58:34;;;;;;;23.00;14.57;;;4.20;99.90;;;;;;5049264;28;20171;-59
2023/04/09 02:01:11;;;;;;;25.07;14.90;;;4.20;99.90;;;;;;5047530;28;20487;-58
2023/04/09 02:03:45;;;;;;;21.43;13.53;;;4.10;99.90;;;;;;5040713;28;20493;-58
2023/04/09 02:06:14;;;;;;;22.43;14.20;;;4.10;99.90;;;;;;5043026;28;20544;-58
2023/04/09 02:08:43;;;;;;;23.60;13.67;;;4.10;99.90;;;;;;5046384;28;20436;-58
2023/04/09 02:11:09;;;;;;;27.57;14.73;;;4.10;99.90;;;;;;5042244;28;20432;-59
2023/04/09 02:13:38;;;;;;;21.13;13.50;;;4.10;99.90;;;;;;5040417;28;20437;-58
2023/04/09 02:16:04;;;;;;;28.67;15.23;;;4.10;99.90;;;;;;5046195;28;20430;-58
2023/04/09 02:18:31;;;;;;;22.23;13.50;;;4.10;99.90;;;;;;5045656;28;20450;-58
2023/04/09 02:20:58;;;;;;;24.20;14.27;;;4.10;99.90;;;;;;5039892;28;20500;-58
2023/04/09 02:23:24;;;;;;;24.93;14.40;;;4.10;99.90;;;;;;5040240;28;20433;-58
2023/04/09 02:25:51;;;;;;;28.33;16.13;;;4.20;99.90;;;;;;5038270;28;20993;-60
2023/04/09 02:28:17;;;;;;;25.67;14.90;;;4.20;99.90;;;;;;5042619;28;20425;-58
2023/04/09 02:30:43;;;;;;;26.87;15.43;;;4.20;99.90;;;;;;5043959;28;20453;-58
2023/04/09 02:33:09;;;;;;;25.00;14.70;;;4.20;99.90;;;;;;5043651;28;20321;-58
2023/04/09 02:35:34;;;;;;;24.43;14.03;;;4.30;99.90;;;;;;5043200;28;20219;-60
2023/04/09 02:38:00;;;;;;;24.77;14.37;;;4.30;99.90;;;;;;5041395;28;20202;-58
2023/04/09 02:40:26;;;;;;;23.00;14.13;;;4.30;99.90;;;;;;5034455;28;20216;-58
2023/04/09 02:42:52;;;;;;;24.80;15.20;;;4.30;99.90;;;;;;5037024;28;20258;-59
2023/04/09 02:45:18;;;;;;;29.30;15.90;;;4.40;99.90;;;;;;5042021;28;20183;-59
2023/04/09 02:47:43;;;;;;;23.07;14.60;;;4.40;99.90;;;;;;5043448;28;20473;-58
2023/04/09 02:50:09;;;;;;;23.27;14.67;;;4.40;99.90;;;;;;5038654;28;20827;-59
2023/04/09 02:52:35;;;;;;;25.10;15.27;;;4.40;99.90;;;;;;5043801;28;20179;-58
2023/04/09 02:55:01;;;;;;;26.13;15.57;;;4.40;99.90;;;;;;5045807;28;20199;-59
2023/04/09 02:57:26;;;;;;;26.03;14.80;;;4.40;99.90;;;;;;5043153;28;20278;-58
2023/04/09 02:59:52;;;;;;;26.00;14.90;;;4.40;99.90;;;;;;5044328;28;20179;-59
2023/04/09 03:02:17;;;;;;;25.87;12.97;;;4.40;99.90;;;;;;5038613;28;20629;-59
2023/04/09 03:04:43;;;;;;;26.37;15.00;;;4.40;99.90;;;;;;5039490;28;20178;-58
2023/04/09 03:07:09;;;;;;;26.23;15.47;;;4.40;99.90;;;;;;5045068;28;20206;-58
2023/04/09 03:09:34;;;;;;;22.27;13.73;;;4.30;99.90;;;;;;5041808;28;20183;-58
2023/04/09 03:12:00;;;;;;;26.47;15.20;;;4.30;99.90;;;;;;5042246;28;20221;-58
2023/04/09 03:14:26;;;;;;;26.60;15.83;;;4.30;99.90;;;;;;5044399;28;20207;-59
2023/04/09 03:16:52;;;;;;;26.50;14.57;;;4.30;99.90;;;;;;5041919;28;20202;-59
2023/04/09 03:19:18;;;;;;;24.50;14.23;;;4.20;99.90;;;;;;5044578;28;20950;-58
2023/04/09 03:21:43;;;;;;;22.90;14.60;;;4.20;99.90;;;;;;5043624;28;20179;-58
2023/04/09 03:24:09;;;;;;;23.53;14.70;;;4.10;99.90;;;;;;5043942;28;20179;-58
2023/04/09 03:26:35;;;;;;;26.57;15.00;;;4.10;99.90;;;;;;5042748;28;20202;-58
2023/04/09 03:29:04;;;;;;;25.17;15.20;;;4.10;99.90;;;;;;5046363;28;20174;-59
2023/04/09 03:31:31;;;;;;;26.40;14.87;;;4.00;99.90;;;;;;5039600;28;20547;-57
2023/04/09 03:33:56;;;;;;;33.13;16.50;;;4.00;99.90;;;;;;5047356;28;20472;-58
2023/04/09 03:36:22;;;;;;;24.57;14.63;;;4.00;99.90;;;;;;5045185;28;20457;-58
2023/04/09 03:38:48;;;;;;;24.90;14.60;;;4.00;99.90;;;;;;5048443;28;20266;-57
2023/04/09 03:41:14;;;;;;;26.73;14.20;;;3.90;99.90;;;;;;5045332;28;20352;-59
2023/04/09 03:43:40;;;;;;;26.87;15.13;;;3.90;99.90;;;;;;5046798;28;20742;-58
2023/04/09 03:46:15;;;;;;;28.53;15.40;;;3.90;99.90;;;;;;5040481;28;20465;-59
2023/04/09 03:48:41;;;;;;;24.90;14.90;;;3.80;99.90;;;;;;5046472;28;20204;-58
2023/04/09 03:51:16;;;;;;;24.33;14.07;;;3.80;99.90;;;;;;5044886;28;20556;-58
2023/04/09 03:53:42;;;;;;;22.67;14.33;;;3.80;99.90;;;;;;5041704;28;20444;-59
2023/04/09 03:56:09;;;;;;;25.77;14.57;;;3.80;99.90;;;;;;5046039;28;20512;-59
2023/04/09 03:58:35;;;;;;;24.73;14.13;;;3.80;99.90;;;;;;5041010;28;20426;-58
2023/04/09 04:01:00;;;;;;;31.00;15.20;;;3.80;99.90;;;;;;5043982;28;20487;-58
2023/04/09 04:03:26;;;;;;;24.27;14.70;;;3.70;99.90;;;;;;5044799;28;20441;-59
2023/04/09 04:05:53;;;;;;;26.40;14.57;;;3.80;99.90;;;;;;5042314;28;20225;-57
2023/04/09 04:08:19;;;;;;;28.20;16.07;;;3.70;99.90;;;;;;5046699;28;20461;-58
2023/04/09 04:10:44;;;;;;;27.80;16.37;;;3.70;99.90;;;;;;5037580;28;20194;-58
2023/04/09 04:13:10;;;;;;;26.73;15.50;;;3.70;99.90;;;;;;5043752;28;20176;-58
2023/04/09 04:15:42;;;;;;;30.20;15.93;;;3.70;99.90;;;;;;5045326;28;20249;-58
2023/04/09 04:18:09;;;;;;;26.77;15.53;;;3.80;99.90;;;;;;5035024;28;20306;-59
2023/04/09 04:20:35;;;;;;;28.30;15.90;;;3.70;99.90;;;;;;5037730;28;20430;-58
2023/04/09 04:23:01;;;;;;;25.13;14.97;;;3.80;99.90;;;;;;5040214;28;20438;-58
2023/04/09 04:25:27;;;;;;;26.03;14.50;;;3.80;99.90;;;;;;5038079;28;21282;-58
2023/04/09 04:27:53;;;;;;;26.37;15.43;;;3.90;99.90;;;;;;5037403;28;20214;-58
2023/04/09 04:30:20;;;;;;;26.33;14.63;;;3.90;99.90;;;;;;5039647;28;20262;-58
2023/04/09 04:32:46;;;;;;;24.60;14.57;;;3.90;99.90;;;;;;5038064;28;20442;-57
2023/04/09 04:35:12;;;;;;;27.00;15.33;;;3.80;99.90;;;;;;5039993;28;21008;-59
2023/04/09 04:37:39;;;;;;;26.03;14.87;;;3.90;99.90;;;;;;5041213;28;20465;-59
2023/04/09 04:40:05;;;;;;;25.93;14.90;;;3.80;99.90;;;;;;5041141;28;20205;-58
2023/04/09 04:42:31;;;;;;;21.30;13.40;;;3.90;99.90;;;;;;5035308;28;20421;-59
2023/04/09 04:44:57;;;;;;;25.00;14.30;;;3.90;99.90;;;;;;5040079;28;20504;-58
2023/04/09 04:47:22;;;;;;;22.30;13.30;;;3.90;99.90;;;;;;5037272;28;20211;-58
2023/04/09 04:49:48;;;;;;;23.00;13.37;;;3.90;99.90;;;;;;5038105;28;20612;-58
2023/04/09 04:52:13;;;;;;;22.53;13.57;;;3.90;99.90;;;;;;5042950;28;20183;-58
2023/04/09 04:54:39;;;;;;;25.83;15.17;;;3.90;99.90;;;;;;5042387;28;20640;-58
2023/04/09 04:57:05;;;;;;;29.23;14.73;;;3.90;99.90;;;;;;5040901;28;20199;-58
2023/04/09 04:59:30;;;;;;;24.07;14.10;;;3.90;99.90;;;;;;5039237;28;20298;-58
2023/04/09 05:01:56;;;;;;;23.80;13.63;;;3.90;99.90;;;;;;5028817;28;20282;-58
2023/04/09 05:04:22;;;;;;;24.37;14.50;;;3.90;99.90;;;;;;5042390;28;20261;-58
2023/04/09 05:06:47;;;;;;;26.33;14.83;;;3.90;99.90;;;;;;5037355;28;20210;-58
2023/04/09 05:09:13;;;;;;;22.30;13.70;;;3.90;99.90;;;;;;5038939;28;20179;-58
2023/04/09 05:11:38;;;;;;;21.83;13.70;;;4.00;99.90;;;;;;5035439;28;20209;-60
2023/04/09 05:14:05;;;;;;;26.50;15.23;;;4.00;99.90;;;;;;5036527;28;20203;-58
2023/04/09 05:16:30;;;;;;;25.27;14.13;;;4.00;99.90;;;;;;5043421;28;20198;-58
2023/04/09 05:18:56;;;;;;;26.53;14.77;;;4.10;99.90;;;;;;5041653;28;20425;-59
2023/04/09 05:21:22;;;;;;;25.13;14.37;;;4.10;99.90;;;;;;5038685;28;20202;-58
2023/04/09 05:23:47;;;;;;;26.07;15.87;;;4.10;99.90;;;;;;5035786;28;20183;-58
2023/04/09 05:26:13;;;;;;;24.40;13.33;;;4.10;99.90;;;;;;5049465;28;20201;-59
2023/04/09 05:28:39;;;;;;;28.93;15.20;;;4.20;99.90;;;;;;5040963;28;20210;-58
2023/04/09 05:31:10;;;;;;;23.50;14.70;;;4.20;99.90;;;;;;5041969;28;20179;-58
2023/04/09 05:33:37;;;;;;;25.20;14.20;;;4.20;99.90;;;;;;5044142;28;20228;-58
2023/04/09 05:36:02;;;;;;;23.70;13.67;;;4.20;99.90;;;;;;5044364;28;20434;-58
2023/04/09 05:38:28;;;;;;;23.83;14.90;;;4.30;99.90;;;;;;5046418;28;20440;-59
2023/04/09 05:40:54;;;;;;;24.00;14.80;;;4.30;99.90;;;;;;5040551;28;20207;-58
2023/04/09 05:43:20;;;;;;;24.47;14.30;;;4.40;99.90;;;;;;5047533;28;20241;-58
2023/04/09 05:45:46;;;;;;;25.43;14.47;;;4.40;99.90;;;;;;5050093;28;20433;-58
2023/04/09 05:48:12;;;;;;;29.80;15.13;;;4.50;99.90;;;;;;5039682;28;20788;-58
2023/04/09 05:50:37;;;;;;;27.67;15.57;;;4.50;99.90;;;;;;5045322;28;20611;-58
2023/04/09 05:53:03;;;;;;;21.70;13.60;;;4.60;99.90;;;;;;5047792;28;20263;-58
2023/04/09 05:55:30;;;;;;;24.43;14.33;;;4.60;99.90;;;;;;5046636;28;20237;-58
2023/04/09 05:57:56;;;;;;;23.17;14.27;;;4.70;99.90;;;;;;5047000;28;20240;-58
2023/04/09 06:00:22;;;;;;;26.37;14.50;;;4.70;99.90;;;;;;5048697;28;20426;-58
2023/04/09 06:02:47;;;;;;;26.43;14.10;;;4.70;99.90;;;;;;5049378;28;20782;-58
2023/04/09 06:05:13;;;;;;;25.80;15.30;;;4.70;99.90;;;;;;5042378;28;20182;-58
2023/04/09 06:07:38;;;;;;;23.30;13.50;;;4.70;99.90;;;;;;5039420;28;20208;-58
2023/04/09 06:10:05;;;;;;;24.20;14.57;;;4.70;99.90;;;;;;5044204;28;20187;-58
2023/04/09 06:12:32;;;;;;;26.27;15.10;;;4.70;99.90;;;;;;5057836;28;20199;-58
2023/04/09 06:14:58;;;;;;;23.77;14.37;;;4.70;99.90;;;;;;5044202;28;20472;-58
2023/04/09 06:17:24;;;;;;;23.80;14.20;;;4.70;99.90;;;;;;5050373;28;20521;-59
2023/04/09 06:19:49;;;;;;;23.37;13.80;;;4.70;99.90;;;;;;5047697;28;20181;-59
2023/04/09 06:22:15;;;;;;;25.57;14.00;;;4.70;99.90;;;;;;5036385;28;20187;-58
2023/04/09 06:24:40;;;;;;;26.90;15.67;;;4.70;99.90;;;;;;5040134;28;20205;-58
2023/04/09 06:27:06;;;;;;;24.30;14.50;;;4.80;99.90;;;;;;5070093;22;20227;-57
2023/04/09 06:29:32;;;;;;;23.13;13.90;;;4.80;99.90;;;;;;5044000;28;20178;-59
2023/04/09 06:31:58;;;;;;;26.10;13.80;;;4.80;99.90;;;;;;5040267;28;20225;-57
2023/04/09 06:34:23;;;;;;;23.57;14.17;;;4.80;99.90;;;;;;5039078;28;20249;-56
2023/04/09 06:36:49;;;;;;;22.57;14.20;;;4.80;99.90;;;;;;5035055;28;20199;-57
2023/04/09 06:39:15;;;;;;;25.23;15.47;;;4.90;99.90;;;;;;5040974;28;20172;-57
2023/04/09 06:41:40;;;;;;;22.50;14.07;;;4.90;99.90;;;;;;5036632;28;20644;-57
2023/04/09 06:44:06;;;;;;;24.60;15.57;;;5.00;99.90;;;;;;5037594;28;20198;-57
2023/04/09 06:46:31;;;;;;;24.03;14.23;;;5.00;99.90;;;;;;5037195;28;20199;-57
2023/04/09 06:48:57;;;;;;;26.07;15.83;;;5.00;99.90;;;;;;5036366;28;21835;-57
2023/04/09 06:51:23;;;;;;;23.70;14.57;;;5.00;99.90;;;;;;5047379;28;20259;-57
2023/04/09 06:53:48;;;;;;;24.80;14.63;;;5.10;99.90;;;;;;5043869;28;20758;-58
2023/04/09 06:56:14;;;;;;;22.10;13.17;;;5.20;99.80;;;;;;5039445;28;20279;-57
2023/04/09 06:58:40;;;;;;;26.90;15.30;;;5.30;99.20;;;;;;5054059;28;20244;-57
2023/04/09 07:01:06;;;;;;;25.63;14.83;;;5.30;98.70;;;;;;5052938;28;20914;-57
2023/04/09 07:03:31;;;;;;;22.90;13.77;;;5.50;97.30;;;;;;5050642;28;20179;-57
2023/04/09 07:05:57;;;;;;;22.30;14.13;;;5.60;96.70;;;;;;5035456;28;20294;-56
2023/04/09 07:08:23;;;;;;;24.53;14.17;;;5.70;95.40;;;;;;5040157;28;20274;-58
2023/04/09 07:10:49;;;;;;;21.53;13.10;;;5.80;94.00;;;;;;5035465;28;21115;-58
2023/04/09 07:13:15;;;;;;;24.07;14.03;;;5.90;92.80;;;;;;5052978;28;20797;-57
2023/04/09 07:15:40;;;;;;;22.57;13.43;;;6.00;91.40;;;;;;5042197;28;20195;-57
2023/04/09 07:18:06;;;;;;;23.23;13.30;;;6.10;90.00;;;;;;5038274;28;20178;-57
2023/04/09 07:20:33;;;;;;;22.53;13.40;;;6.10;87.50;;;;;;5038404;28;20225;-56
2023/04/09 07:22:59;;;;;;;21.73;13.30;;;6.20;87.30;;;;;;5040543;28;20733;-57
2023/04/09 07:25:25;;;;;;;20.67;13.07;;;6.40;84.20;;;;;;5035556;28;20445;-57
2023/04/09 07:27:51;;;;;;;20.80;13.10;;;6.40;81.30;;;;;;5036605;28;20461;-57
2023/04/09 07:30:16;;;;;;;25.07;12.87;;;6.50;81.10;;;;;;5036153;28;20767;-58
2023/04/09 07:32:42;;;;;;;19.30;12.27;;;6.50;79.80;;;;;;5041160;28;20183;-57
2023/04/09 07:35:08;;;;;;;26.23;13.97;;;6.60;78.80;;;;;;5029819;28;20226;-57
2023/04/09 07:37:34;;;;;;;22.20;13.10;;;6.70;77.30;;;;;;5052201;28;20197;-57
2023/04/09 07:40:02;;;;;;;22.50;14.03;;;6.80;76.90;;;;;;5045499;28;20928;-56
2023/04/09 07:42:28;;;;;;;25.30;15.80;;;6.90;77.20;;;;;;5043819;28;20509;-56
2023/04/09 07:44:55;;;;;;;22.90;13.77;;;7.10;78.10;;;;;;5035974;28;20516;-56
2023/04/09 07:47:21;;;;;;;20.63;12.90;;;7.20;77.00;;;;;;5036211;28;20465;-57
2023/04/09 07:49:47;;;;;;;19.87;13.10;;;7.30;74.00;;;;;;5040060;28;20445;-56
2023/04/09 07:52:13;;;;;;;17.53;12.47;;;7.30;73.20;;;;;;5044080;28;20446;-56
2023/04/09 07:54:39;;;;;;;17.97;11.57;;;7.50;72.20;;;;;;5042270;28;20218;-56
2023/04/09 07:57:05;;;;;;;17.40;12.20;;;7.50;71.20;;;;;;5043207;28;20517;-54
2023/04/09 07:59:31;;;;;;;20.87;12.90;;;7.60;70.20;;;;;;5044622;28;20186;-55
2023/04/09 08:01:57;;;;;;;20.73;12.93;;;7.70;69.40;;;;;;5039979;28;20425;-53
2023/04/09 08:04:23;;;;;;;22.50;12.63;;;7.70;69.10;;;;;;5038957;28;21148;-53
2023/04/09 08:06:50;;;;;;;19.50;11.17;;;7.70;67.80;;;;;;5032996;28;20483;-56
2023/04/09 08:09:19;;;;;;;19.10;12.60;;;7.60;66.90;;;;;;5036949;28;20261;-55
2023/04/09 08:11:45;;;;;;;18.93;12.53;;;7.40;66.70;;;;;;5028699;28;20433;-55
2023/04/09 08:14:15;;;;;;;17.93;11.97;;;7.40;67.70;;;;;;5033269;28;20498;-50
2023/04/09 08:16:43;;;;;;;16.43;11.33;;;7.50;68.10;;;;;;5028328;28;20481;-50
2023/04/09 08:19:10;;;;;;;16.60;10.33;;;7.60;69.00;;;;;;5037104;28;20478;-50
2023/04/09 08:21:42;;;;;;;19.63;11.43;;;7.50;68.00;;;;;;5036584;28;20461;-51
2023/04/09 08:24:10;;;;;;;14.07;10.03;;;7.50;67.50;;;;;;5031782;28;21233;-52
2023/04/09 08:26:39;;;;;;;19.07;11.70;;;7.50;67.10;;;;;;5035804;28;20468;-53
2023/04/09 08:29:06;;;;;;;16.20;10.87;;;7.60;66.50;;;;;;5036385;28;20429;-55
2023/04/09 08:31:31;;;;;;;14.57;10.00;;;7.60;66.50;;;;;;5029303;28;20965;-54
2023/04/09 08:33:57;;;;;;;19.07;11.77;;;7.60;66.80;;;;;;5031773;28;20517;-54
2023/04/09 08:36:23;;;;;;;17.30;10.87;;;7.60;66.80;;;;;;5041151;28;20215;-56
2023/04/09 08:38:48;;;;;;;21.40;11.70;;;7.70;67.30;;;;;;5052657;28;20183;-57
2023/04/09 08:41:19;;;;;;;20.33;11.77;;;7.80;67.40;;;;;;5030329;28;20565;-52
2023/04/09 08:43:48;;;;;;;14.43;10.30;;;7.90;67.40;;;;;;5018975;28;20664;-54
2023/04/09 08:46:17;;;;;;;13.63;9.37;;;7.90;66.20;;;;;;5026810;28;20828;-52
2023/04/09 08:48:45;;;;;;;14.93;9.77;;;7.80;65.20;;;;;;5035514;28;20564;-52
2023/04/09 08:51:18;;;;;;;13.03;9.37;;;7.80;65.60;;;;;;5035971;28;20429;-52
2023/04/09 08:53:46;;;;;;;13.27;9.10;;;7.80;65.20;;;;;;5038721;28;20934;-53
2023/04/09 08:56:13;;;;;;;13.97;9.13;;;7.90;64.80;;;;;;5033486;28;20463;-55
2023/04/09 08:58:44;;;;;;;13.10;8.77;;;7.80;64.60;;;;;;5037020;28;20434;-53
2023/04/09 09:01:24;;;;;;;15.90;9.13;;;8.00;65.10;;;;;;5037897;28;20429;-55
2023/04/09 09:03:56;;;;;;;12.87;8.70;;;8.10;64.20;;;;;;5036604;28;20434;-53
2023/04/09 09:06:23;;;;;;;12.97;9.03;;;8.30;64.20;;;;;;5031986;28;20437;-53
2023/04/09 09:09:09;;;;;;;15.07;9.93;;;8.40;64.50;;;;;;5038347;28;20525;-52
2023/04/09 09:11:37;;;;;;;14.40;9.80;;;8.40;63.20;;;;;;5035559;28;20429;-54
2023/04/09 09:14:08;;;;;;;13.50;7.63;;;8.60;64.00;;;;;;5038326;28;20457;-52
2023/04/09 09:16:38;;;;;;;13.40;9.00;;;8.80;63.70;;;;;;5044993;28;20437;-53
2023/04/09 09:19:04;;;;;;;11.83;8.23;;;9.10;63.10;;;;;;5037695;28;20460;-51
2023/04/09 09:21:30;;;;;;;13.50;9.20;;;9.20;62.50;;;;;;5035428;28;20529;-52
2023/04/09 09:23:57;;;;;;;14.10;9.47;;;9.40;62.00;;;;;;5038149;28;20498;-54
2023/04/09 09:26:26;;;;;;;15.07;9.73;;;9.50;61.70;;;;;;5036162;28;20457;-55
2023/04/09 09:28:52;;;;;;;12.80;9.17;;;9.70;61.70;;;;;;5033534;28;20465;-55
2023/04/09 09:31:19;;;;;;;13.13;8.93;;;9.90;61.20;;;;;;5033325;28;20422;-52
2023/04/09 09:33:45;;;;;;;14.00;8.93;;;10.10;59.20;;;;;;5037700;28;20456;-53
2023/04/09 09:36:11;;;;;;;11.87;8.80;;;10.10;58.50;;;;;;5038088;28;22565;-54
2023/04/09 09:38:57;;;;;;;14.50;9.17;;;10.00;56.90;;;;;;5038247;28;20993;-53
2023/04/09 09:41:24;;;;;;;10.97;7.93;;;9.90;57.80;;;;;;5037727;28;20433;-53
2023/04/09 09:43:50;;;;;;;13.33;9.10;;;9.70;57.40;;;;;;5034660;28;20512;-51
2023/04/09 09:46:16;;;;;;;12.13;8.60;;;9.60;57.00;;;;;;5034452;28;20584;-49
2023/04/09 09:48:43;;;;;;;13.07;8.83;;;9.70;57.80;;;;;;5035080;28;20503;-55
2023/04/09 09:51:10;;;;;;;12.00;7.80;;;9.90;58.60;;;;;;5037851;28;20171;-53
2023/04/09 09:53:37;;;;;;;11.73;7.37;;;10.20;56.60;;;;;;5037659;28;20486;-53
2023/04/09 09:56:05;;;;;;;12.20;8.67;;;10.30;54.90;;;;;;5015124;28;20457;-53
2023/04/09 09:58:43;;;;;;;10.90;7.77;;;10.40;54.90;;;;;;5032073;28;20433;-52
2023/04/09 10:01:12;;;;;;;13.70;8.40;;;10.40;54.10;;;;;;5037419;28;20426;-53
2023/04/09 10:03:39;;;;;;;10.17;7.10;;;10.30;54.00;;;;;;5037021;28;20434;-52
2023/04/09 10:06:08;;;;;;;12.03;8.33;;;10.20;54.60;;;;;;5041646;28;22292;-54
2023/04/09 10:08:36;;;;;;;12.43;8.60;;;10.00;54.20;;;;;;5034443;28;20452;-53
2023/04/09 10:11:04;;;;;;;12.17;8.37;;;9.80;55.10;;;;;;5035214;28;20437;-52
2023/04/09 10:13:34;;;;;;;11.90;7.87;;;9.70;55.60;;;;;;5026203;28;20442;-52
2023/04/09 10:16:01;;;;;;;13.60;8.57;;;9.50;55.50;;;;;;5037111;28;20465;-53
2023/04/09 10:18:28;;;;;;;12.93;8.93;;;9.40;55.00;;;;;;5038679;28;20982;-53
2023/04/09 10:21:09;;;;;;;14.37;8.27;;;9.50;55.90;;;;;;5035576;28;20463;-52
2023/04/09 10:23:47;;;;;;;12.20;8.13;;;9.80;55.30;;;;;;5028123;28;20507;-51
2023/04/09 10:26:12;;;;;;;11.67;7.80;;;10.10;54.80;;;;;;5039056;28;21000;-52
2023/04/09 10:28:38;;;;;;;11.37;8.47;;;10.40;53.70;;;;;;5040208;28;20441;-54
2023/04/09 10:31:05;;;;;;;13.37;9.77;;;10.60;54.30;;;;;;5046449;28;20175;-58
2023/04/09 10:33:32;;;;;;;12.73;8.43;;;10.90;54.40;;;;;;5038953;28;21426;-56
2023/04/09 10:36:04;;;;;;;13.77;8.40;;;11.20;52.20;;;;;;5037933;28;21010;-57
2023/04/09 10:38:34;;;;;;;14.37;8.07;;;11.40;51.60;;;;;;5040858;28;20421;-57
2023/04/09 10:41:07;;;;;;;9.93;6.97;;;11.50;49.80;;;;;;5040773;28;20476;-57
2023/04/09 10:43:36;;;;;;;12.47;8.27;;;11.60;50.70;;;;;;5023970;28;20698;-55
2023/04/09 10:46:05;;;;;;;11.80;7.57;;;11.60;50.40;;;;;;5029929;28;20550;-52
2023/04/09 10:48:34;;;;;;;11.47;7.90;;;11.80;51.20;;;;;;5030888;28;21482;-55
2023/04/09 10:51:03;;;;;;;12.53;8.03;;;12.00;51.30;;;;;;5041889;28;20430;-55
2023/04/09 10:53:28;;;;;;;12.07;7.70;;;12.10;50.70;;;;;;5037514;28;20563;-58
2023/04/09 10:55:55;;;;;;;7.20;5.73;;;12.10;50.50;;;;;;5033322;28;20456;-59
2023/04/09 10:58:20;;;;;;;8.43;6.60;;;12.10;49.80;;;;;;5029522;28;20194;-60
2023/04/09 11:00:48;;;;;;;8.57;6.10;;;12.20;48.40;;;;;;5038735;28;20435;-59
2023/04/09 11:03:24;;;;;;;10.77;7.60;;;12.10;49.30;;;;;;5040224;28;20175;-58
2023/04/09 11:06:09;;;;;;;10.87;7.77;;;12.00;50.60;;;;;;5041184;28;20437;-57
2023/04/09 11:08:36;;;;;;;10.33;7.13;;;11.80;50.50;;;;;;5037220;28;20430;-56
2023/04/09 11:11:02;;;;;;;9.63;7.00;;;11.60;50.60;;;;;;5036360;28;20861;-58
2023/04/09 11:13:29;;;;;;;10.20;7.13;;;11.40;50.50;;;;;;5032559;28;20462;-59
2023/04/09 11:15:55;;;;;;;10.10;7.33;;;11.40;50.80;;;;;;5041152;28;20523;-59
2023/04/09 11:18:23;;;;;;;9.93;7.37;;;11.70;51.80;;;;;;5037782;28;20434;-58
2023/04/09 11:20:49;;;;;;;9.97;6.43;;;11.80;50.60;;;;;;5037187;28;20179;-58
2023/04/09 11:23:16;;;;;;;5.10;4.37;;;11.80;50.00;;;;;;5036856;28;20423;-58
2023/04/09 11:25:42;;;;;;;5.60;4.70;;;11.80;48.90;;;;;;5040042;28;20179;-57
2023/04/09 11:28:07;;;;;;;7.47;5.13;;;11.90;47.20;;;;;;5037996;28;20450;-59
2023/04/09 11:30:34;;;;;;;6.57;5.10;;;12.10;47.30;;;;;;5036381;28;20722;-58
2023/04/09 11:33:01;;;;;;;6.70;5.40;;;12.50;47.70;;;;;;5019794;28;20214;-58
2023/04/09 11:35:26;;;;;;;5.27;4.70;;;12.80;45.40;;;;;;5042628;28;20454;-59
2023/04/09 11:37:53;;;;;;;7.90;5.90;;;13.10;45.70;;;;;;5034353;28;20467;-59
2023/04/09 11:40:27;;;;;;;6.90;5.27;;;13.40;46.90;;;;;;5037375;28;20573;-59
2023/04/09 11:42:54;;;;;;;7.10;5.43;;;13.80;43.40;;;;;;5032423;28;20429;-59
2023/04/09 11:45:25;;;;;;;8.87;6.00;;;13.80;43.10;;;;;;5040803;28;20503;-59
2023/04/09 11:47:51;;;;;;;7.77;5.43;;;13.90;43.60;;;;;;5036006;28;20453;-58
2023/04/09 11:50:18;;;;;;;14.67;8.23;;;14.00;43.90;;;;;;5034958;28;20747;-59
2023/04/09 11:52:48;;;;;;;9.63;7.13;;;14.20;45.00;;;;;;5038803;28;20808;-59
2023/04/09 11:55:28;;;;;;;9.83;7.40;;;14.30;43.80;;;;;;5038054;28;20465;-60
2023/04/09 11:57:59;;;;;;;8.73;6.37;;;14.50;44.10;;;;;;5029676;28;20449;-58
2023/04/09 12:00:26;;;;;;;9.00;6.80;;;14.60;43.00;;;;;;5032413;28;20462;-60
2023/04/09 12:03:00;;;;;;;6.90;6.00;;;14.70;41.60;;;;;;5035974;28;20433;-58
2023/04/09 12:05:33;;;;;;;7.10;5.73;;;14.70;42.60;;;;;;5034056;28;20430;-58
2023/04/09 12:08:02;;;;;;;6.70;5.40;;;14.90;43.10;;;;;;5037351;28;20454;-59
2023/04/09 12:10:29;;;;;;;8.17;6.20;;;15.10;42.80;;;;;;5033477;28;21316;-58
2023/04/09 12:13:05;;;;;;;9.77;7.07;;;15.20;42.20;;;;;;5033836;28;21143;-57
2023/04/09 12:15:36;;;;;;;7.67;6.40;;;15.30;42.40;;;;;;5031418;28;20465;-57
2023/04/09 12:18:02;;;;;;;8.07;6.00;;;15.60;42.40;;;;;;5033891;28;20462;-56
2023/04/09 12:20:27;;;;;;;6.37;5.50;;;15.60;40.10;;;;;;5026572;28;20469;-56
2023/04/09 12:22:54;;;;;;;9.10;6.50;;;15.60;39.10;;;;;;5031928;28;20429;-57
2023/04/09 12:25:19;;;;;;;8.57;6.60;;;15.50;39.10;;;;;;5021732;28;20563;-56
2023/04/09 12:27:45;;;;;;;7.23;5.33;;;15.40;39.10;;;;;;5033983;28;20551;-54
2023/04/09 12:30:11;;;;;;;8.23;6.20;;;15.30;39.30;;;;;;5035794;28;20696;-55
2023/04/09 12:32:37;;;;;;;8.23;5.83;;;15.30;40.90;;;;;;5028359;28;20691;-57
2023/04/09 12:35:03;;;;;;;9.03;6.70;;;15.30;39.40;;;;;;5035511;28;20281;-56
2023/04/09 12:37:29;;;;;;;7.27;5.73;;;15.30;39.20;;;;;;5040173;28;20453;-57
2023/04/09 12:39:55;;;;;;;7.27;5.80;;;15.30;39.10;;;;;;5043409;28;20446;-57